createdAt,value
2023-05-10T00:02:27.339Z,100459.88
2023-05-10T00:04:54.663Z,100459.63
2023-05-10T00:07:22.118Z,100458.06
2023-05-10T00:09:49.496Z,100443.53
2023-05-10T00:12:16.822Z,100454.38
2023-05-10T00:14:44.155Z,100452.16
2023-05-10T00:17:12.979Z,100460.78
2023-05-10T00:19:40.308Z,100457.19
2023-05-10T00:22:07.590Z,100455.13
2023-05-10T00:24:34.875Z,100451.13
2023-05-10T00:27:02.195Z,100446.38
2023-05-10T00:29:29.652Z,100435.81
2023-05-10T00:31:56.974Z,100446.34
2023-05-10T00:34:25.728Z,100444.94
2023-05-10T00:36:53.078Z,100446.25
2023-05-10T00:39:20.533Z,100441.47
2023-05-10T00:41:47.826Z,100436.03
2023-05-10T00:44:15.343Z,100439.72
2023-05-10T00:46:43.051Z,100437.75
2023-05-10T00:49:10.653Z,100434.47
2023-05-10T00:51:39.346Z,100434.34
2023-05-10T00:54:06.704Z,100426.44
2023-05-10T00:56:34.695Z,100427.00
2023-05-10T00:59:02.242Z,100430.91
2023-05-10T01:01:30.466Z,100418.66
2023-05-10T01:03:58.316Z,100425.22
2023-05-10T01:06:25.664Z,100417.19
2023-05-10T01:08:54.636Z,100416.88
2023-05-10T01:11:21.953Z,100414.13
2023-05-10T01:13:56.358Z,100403.59
2023-05-10T01:16:24.837Z,100406.88
2023-05-10T01:18:53.182Z,100406.06
2023-05-10T01:21:28.712Z,100404.78
2023-05-10T01:24:18.881Z,100401.88
2023-05-10T01:27:46.388Z,100396.16
2023-05-10T01:30:48.361Z,100408.75
2023-05-10T01:33:23.378Z,100390.41
2023-05-10T01:35:57.013Z,100401.53
2023-05-10T01:38:33.920Z,100407.06
2023-05-10T01:41:12.365Z,100409.19
2023-05-10T01:43:48.045Z,100408.06
2023-05-10T01:46:21.791Z,100412.63
2023-05-10T01:48:55.937Z,100412.59
2023-05-10T01:51:26.924Z,100407.53
2023-05-10T01:54:02.571Z,100407.34
2023-05-10T01:56:33.281Z,100404.28
2023-05-10T01:59:04.463Z,100411.63
2023-05-10T02:01:32.890Z,100406.41
2023-05-10T02:04:03.873Z,100407.22
2023-05-10T02:06:32.977Z,100405.06
2023-05-10T02:09:02.399Z,100413.41
2023-05-10T02:11:30.652Z,100407.44
2023-05-10T02:13:59.688Z,100415.56
2023-05-10T02:16:28.573Z,100415.75
2023-05-10T02:18:58.183Z,100413.13
2023-05-10T02:21:28.891Z,100417.69
2023-05-10T02:23:57.551Z,100412.16
2023-05-10T02:26:26.337Z,100411.06
2023-05-10T02:28:55.453Z,100416.25
2023-05-10T02:31:23.903Z,100419.44
2023-05-10T02:33:52.077Z,100422.28
2023-05-10T02:36:21.935Z,100426.97
2023-05-10T02:38:52.731Z,100421.09
2023-05-10T02:41:21.611Z,100430.53
2023-05-10T02:43:51.623Z,100426.00
2023-05-10T02:46:19.391Z,100426.78
2023-05-10T02:48:46.833Z,100427.31
2023-05-10T02:51:17.445Z,100422.50
2023-05-10T02:53:46.941Z,100424.97
2023-05-10T02:56:20.996Z,100416.59
2023-05-10T02:58:48.280Z,100416.59
2023-05-10T03:01:15.661Z,100428.31
2023-05-10T03:03:43.088Z,100425.47
2023-05-10T03:06:10.523Z,100424.56
2023-05-10T03:08:38.042Z,100425.13
2023-05-10T03:11:21.473Z,100427.47
2023-05-10T03:14:05.260Z,100420.63
2023-05-10T03:16:38.326Z,100418.28
2023-05-10T03:19:17.057Z,100420.97
2023-05-10T03:21:50.696Z,100410.06
2023-05-10T03:24:21.789Z,100405.28
2023-05-10T03:26:52.847Z,100407.50
2023-05-10T03:29:22.847Z,100400.72
2023-05-10T03:31:50.300Z,100401.00
2023-05-10T03:34:17.729Z,100395.66
2023-05-10T03:36:45.163Z,100404.06
2023-05-10T03:39:12.467Z,100400.72
2023-05-10T03:41:39.831Z,100403.47
2023-05-10T03:44:08.514Z,100395.88
2023-05-10T03:46:36.067Z,100391.44
2023-05-10T03:49:03.455Z,100384.44
2023-05-10T03:51:30.838Z,100378.72
2023-05-10T03:53:58.249Z,100381.19
2023-05-10T03:56:25.869Z,100385.41
2023-05-10T03:58:53.170Z,100381.41
2023-05-10T04:01:22.110Z,100376.78
2023-05-10T04:03:49.483Z,100371.66
2023-05-10T04:06:17.087Z,100372.81
2023-05-10T04:08:44.517Z,100379.28
2023-05-10T04:11:12.956Z,100375.78
2023-05-10T04:13:40.305Z,100379.78
2023-05-10T04:16:07.703Z,100381.28
2023-05-10T04:18:36.389Z,100383.34
2023-05-10T04:21:04.054Z,100371.69
2023-05-10T04:23:31.500Z,100378.03
2023-05-10T04:26:01.816Z,100372.72
2023-05-10T04:28:29.183Z,100382.06
2023-05-10T04:31:02.344Z,100383.88
2023-05-10T04:33:29.696Z,100388.41
2023-05-10T04:35:58.574Z,100397.13
2023-05-10T04:38:25.986Z,100381.91
2023-05-10T04:40:53.349Z,100385.66
2023-05-10T04:43:20.767Z,100378.66
2023-05-10T04:45:48.092Z,100384.25
2023-05-10T04:48:15.435Z,100376.19
2023-05-10T04:50:44.022Z,100378.06
2023-05-10T04:53:14.601Z,100380.50
2023-05-10T04:55:43.654Z,100386.56
2023-05-10T04:58:11.139Z,100386.94
2023-05-10T05:00:38.462Z,100387.44
2023-05-10T05:03:05.930Z,100387.66
2023-05-10T05:05:33.331Z,100378.50
2023-05-10T05:08:00.724Z,100385.78
2023-05-10T05:10:29.398Z,100389.94
2023-05-10T05:12:56.825Z,100389.69
2023-05-10T05:15:24.216Z,100382.19
2023-05-10T05:17:51.616Z,100379.59
2023-05-10T05:20:19.272Z,100384.81
2023-05-10T05:22:46.964Z,100390.50
2023-05-10T05:25:14.334Z,100404.28
2023-05-10T05:27:43.192Z,100403.53
2023-05-10T05:30:11.380Z,100416.84
2023-05-10T05:32:39.439Z,100418.72
2023-05-10T05:35:07.341Z,100421.03
2023-05-10T05:37:34.968Z,100425.03
2023-05-10T05:40:02.410Z,100421.41
2023-05-10T05:42:29.704Z,100421.63
2023-05-10T05:44:58.506Z,100422.06
2023-05-10T05:47:25.960Z,100430.84
2023-05-10T05:49:53.305Z,100429.72
2023-05-10T05:52:20.631Z,100429.81
2023-05-10T05:54:47.974Z,100439.13
2023-05-10T05:57:15.292Z,100439.28
2023-05-10T05:59:42.784Z,100430.44
2023-05-10T06:02:11.983Z,100428.13
2023-05-10T06:04:41.537Z,100434.19
2023-05-10T06:07:10.214Z,100439.56
2023-05-10T06:09:37.497Z,100441.78
2023-05-10T06:12:05.242Z,100444.69
2023-05-10T06:14:32.545Z,100440.31
2023-05-10T06:16:59.981Z,100436.47
2023-05-10T06:19:28.981Z,100436.78
2023-05-10T06:21:56.238Z,100440.56
2023-05-10T06:24:23.690Z,100440.41
2023-05-10T06:26:51.189Z,100425.88
2023-05-10T06:29:18.609Z,100433.69
2023-05-10T06:31:46.151Z,100441.25
2023-05-10T06:34:13.482Z,100430.66
2023-05-10T06:36:42.173Z,100434.50
2023-05-10T06:39:09.489Z,100434.56
2023-05-10T06:41:36.791Z,100445.75
2023-05-10T06:44:04.381Z,100441.69
2023-05-10T06:46:31.842Z,100448.03
2023-05-10T06:48:59.232Z,100454.69
2023-05-10T06:51:26.718Z,100458.59
2023-05-10T06:53:55.396Z,100458.16
2023-05-10T06:56:22.864Z,100458.06
2023-05-10T06:58:50.214Z,100448.31
2023-05-10T07:01:17.822Z,100447.75
2023-05-10T07:03:45.227Z,100436.53
2023-05-10T07:06:21.753Z,100462.00
2023-05-10T07:08:59.763Z,100449.41
2023-05-10T07:11:27.249Z,100461.16
2023-05-10T07:13:54.693Z,100456.19
2023-05-10T07:16:22.038Z,100454.19
2023-05-10T07:18:49.380Z,100453.91
2023-05-10T07:21:16.960Z,100453.59
2023-05-10T07:23:45.204Z,100451.66
2023-05-10T07:26:14.000Z,100456.56
2023-05-10T07:28:41.266Z,100453.38
2023-05-10T07:31:17.702Z,100444.53
2023-05-10T07:33:45.199Z,100447.53
2023-05-10T07:36:12.546Z,100442.66
2023-05-10T07:38:41.020Z,100446.84
2023-05-10T07:41:08.620Z,100445.41
2023-05-10T07:43:37.490Z,100446.84
2023-05-10T07:46:05.814Z,100443.81
2023-05-10T07:48:33.119Z,100449.22
2023-05-10T07:51:00.509Z,100444.03
2023-05-10T07:53:27.909Z,100453.66
2023-05-10T07:55:58.504Z,100443.44
2023-05-10T07:58:26.286Z,100444.75
2023-05-10T08:00:55.310Z,100447.06
2023-05-10T08:03:22.681Z,100442.25
2023-05-10T08:05:50.065Z,100437.78
2023-05-10T08:08:17.493Z,100454.38
2023-05-10T08:10:45.226Z,100452.72
2023-05-10T08:13:12.631Z,100447.88
2023-05-10T08:15:40.026Z,100456.59
2023-05-10T08:18:08.931Z,100450.22
2023-05-10T08:20:36.476Z,100459.78
2023-05-10T08:23:03.895Z,100459.09
2023-05-10T08:25:32.064Z,100461.22
2023-05-10T08:27:59.405Z,100460.44
2023-05-10T08:30:26.724Z,100450.41
2023-05-10T08:32:54.103Z,100456.34
2023-05-10T08:35:22.846Z,100458.28
2023-05-10T08:37:50.167Z,100458.97
2023-05-10T08:40:20.041Z,100449.81
2023-05-10T08:42:59.632Z,100445.59
2023-05-10T08:45:32.908Z,100447.88
2023-05-10T08:48:02.361Z,100447.22
2023-05-10T08:50:32.238Z,100442.47
2023-05-10T08:53:02.613Z,100447.31
2023-05-10T08:55:30.065Z,100445.22
2023-05-10T08:57:57.550Z,100435.94
2023-05-10T09:00:25.069Z,100438.06
2023-05-10T09:02:52.856Z,100435.25
2023-05-10T09:05:20.363Z,100438.03
2023-05-10T09:07:49.347Z,100433.19
2023-05-10T09:10:17.695Z,100431.59
2023-05-10T09:12:49.348Z,100432.16
2023-05-10T09:15:20.243Z,100420.06
2023-05-10T09:17:50.194Z,100423.13
2023-05-10T09:20:17.880Z,100425.00
2023-05-10T09:22:45.626Z,100420.50
2023-05-10T09:25:16.005Z,100435.38
2023-05-10T09:27:46.354Z,100428.47
2023-05-10T09:30:17.152Z,100420.31
2023-05-10T09:32:47.007Z,100426.25
2023-05-10T09:35:16.779Z,100421.97
2023-05-10T09:37:46.122Z,100430.59
2023-05-10T09:40:16.396Z,100418.91
2023-05-10T09:42:53.618Z,100417.94
2023-05-10T09:45:21.707Z,100417.53
2023-05-10T09:47:49.244Z,100414.50
2023-05-10T09:50:16.680Z,100412.16
2023-05-10T09:52:49.216Z,100416.94
2023-05-10T09:55:19.201Z,100410.94
2023-05-10T09:57:46.981Z,100421.25
2023-05-10T10:00:18.928Z,100408.28
2023-05-10T10:02:48.399Z,100411.72
2023-05-10T10:05:16.522Z,100414.19
2023-05-10T10:07:44.065Z,100406.47
2023-05-10T10:10:11.545Z,100411.28
2023-05-10T10:12:41.052Z,100412.25
2023-05-10T10:15:09.735Z,100412.69
2023-05-10T10:17:38.161Z,100407.34
2023-05-10T10:20:06.573Z,100407.31
2023-05-10T10:22:34.010Z,100406.63
2023-05-10T10:25:01.526Z,100395.75
2023-05-10T10:27:42.589Z,100399.69
2023-05-10T10:30:24.781Z,100399.13
2023-05-10T10:33:27.260Z,100400.78
2023-05-10T10:35:58.975Z,100397.28
2023-05-10T10:38:26.480Z,100393.41
2023-05-10T10:41:04.077Z,100389.84
2023-05-10T10:43:31.472Z,100385.16
2023-05-10T10:46:16.027Z,100391.06
2023-05-10T10:48:48.624Z,100385.56
2023-05-10T10:51:16.107Z,100383.94
2023-05-10T10:53:44.516Z,100391.94
2023-05-10T10:56:13.625Z,100395.41
2023-05-10T10:58:41.829Z,100401.31
2023-05-10T11:01:15.471Z,100394.78
2023-05-10T11:04:16.182Z,100398.13
2023-05-10T11:06:43.602Z,100392.91
2023-05-10T11:09:12.158Z,100384.16
2023-05-10T11:11:53.490Z,100387.63
2023-05-10T11:14:22.425Z,100387.06
2023-05-10T11:16:51.299Z,100384.41
2023-05-10T11:19:19.158Z,100377.19
2023-05-10T11:21:47.992Z,100374.06
2023-05-10T11:24:16.868Z,100381.00
2023-05-10T11:26:44.440Z,100390.75
2023-05-10T11:29:13.880Z,100413.38
2023-05-10T11:31:44.898Z,100421.63
2023-05-10T11:34:24.836Z,100418.56
2023-05-10T11:36:53.347Z,100416.97
2023-05-10T11:39:20.826Z,100414.25
2023-05-10T11:41:49.957Z,100407.38
2023-05-10T11:44:17.523Z,100396.00
2023-05-10T11:46:45.078Z,100389.22
2023-05-10T11:49:14.008Z,100382.28
2023-05-10T11:51:41.317Z,100370.59
2023-05-10T11:54:09.926Z,100364.47
2023-05-10T11:56:37.583Z,100355.94
2023-05-10T11:59:05.126Z,100346.69
2023-05-10T12:01:32.677Z,100354.06
2023-05-10T12:04:00.479Z,100359.63
2023-05-10T12:06:31.292Z,100355.00
2023-05-10T12:08:59.500Z,100351.00
2023-05-10T12:11:27.841Z,100351.03
2023-05-10T12:13:56.117Z,100356.44
2023-05-10T12:16:25.154Z,100356.19
2023-05-10T12:18:54.646Z,100365.53
2023-05-10T12:21:22.397Z,100362.09
2023-05-10T12:23:52.813Z,100381.81
2023-05-10T12:26:23.158Z,100375.56
2023-05-10T12:28:50.445Z,100379.59
2023-05-10T12:31:17.827Z,100381.94
2023-05-10T12:33:46.228Z,100378.91
2023-05-10T12:36:15.706Z,100375.88
2023-05-10T12:38:44.241Z,100375.06
2023-05-10T12:41:14.345Z,100366.06
2023-05-10T12:43:42.146Z,100369.75
2023-05-10T12:46:10.728Z,100371.69
2023-05-10T12:48:39.338Z,100368.09
2023-05-10T12:51:07.597Z,100359.53
2023-05-10T12:53:35.025Z,100360.13
2023-05-10T12:56:02.393Z,100360.50
2023-05-10T12:58:35.950Z,100363.38
2023-05-10T13:01:04.164Z,100363.03
2023-05-10T13:03:31.589Z,100372.19
2023-05-10T13:05:58.871Z,100367.69
2023-05-10T13:08:26.197Z,100368.34
2023-05-10T13:10:53.608Z,100359.00
2023-05-10T13:13:20.959Z,100357.44
2023-05-10T13:15:49.610Z,100351.19
2023-05-10T13:18:16.945Z,100333.44
2023-05-10T13:20:44.332Z,100334.00
2023-05-10T13:23:11.598Z,100340.69
2023-05-10T13:25:38.941Z,100342.47
2023-05-10T13:28:06.220Z,100329.06
2023-05-10T13:30:33.593Z,100324.69
2023-05-10T13:33:02.371Z,100322.09
2023-05-10T13:35:29.886Z,100317.47
2023-05-10T13:37:57.366Z,100314.63
2023-05-10T13:40:24.613Z,100315.31
2023-05-10T13:42:51.867Z,100320.34
2023-05-10T13:45:19.426Z,100321.69
2023-05-10T13:47:46.873Z,100316.63
2023-05-10T13:50:15.698Z,100315.09
2023-05-10T13:52:43.066Z,100311.59
2023-05-10T13:55:10.330Z,100307.41
2023-05-10T13:57:37.701Z,100315.78
2023-05-10T14:00:06.330Z,100313.13
2023-05-10T14:02:33.775Z,100311.31
2023-05-10T14:05:01.129Z,100301.34
2023-05-10T14:07:29.786Z,100303.91
2023-05-10T14:09:57.186Z,100305.78
2023-05-10T14:12:24.429Z,100301.75
2023-05-10T14:14:51.735Z,100287.41
2023-05-10T14:17:19.003Z,100292.13
2023-05-10T14:19:46.309Z,100285.09
2023-05-10T14:22:13.800Z,100282.69
2023-05-10T14:24:42.411Z,100282.31
2023-05-10T14:27:09.677Z,100276.03
2023-05-10T14:29:37.151Z,100273.16
2023-05-10T14:32:04.552Z,100258.56
2023-05-10T14:34:31.825Z,100269.72
2023-05-10T14:36:59.119Z,100266.50
2023-05-10T14:39:26.385Z,100257.66
2023-05-10T14:41:55.064Z,100255.03
2023-05-10T14:44:22.295Z,100256.94
2023-05-10T14:46:49.597Z,100249.88
2023-05-10T14:49:16.853Z,100238.59
2023-05-10T14:51:44.097Z,100248.84
2023-05-10T14:54:11.379Z,100246.75
2023-05-10T14:56:38.633Z,100258.91
2023-05-10T14:59:07.249Z,100253.69
2023-05-10T15:01:35.366Z,100254.44
2023-05-10T15:04:03.250Z,100257.00
2023-05-10T15:06:34.620Z,100252.47
2023-05-10T15:09:03.264Z,100258.13
2023-05-10T15:11:30.543Z,100247.66
2023-05-10T15:13:57.833Z,100251.94
2023-05-10T15:16:26.678Z,100250.53
2023-05-10T15:18:54.146Z,100259.31
2023-05-10T15:21:21.428Z,100249.19
2023-05-10T15:23:48.665Z,100250.47
2023-05-10T15:26:15.936Z,100253.81
2023-05-10T15:28:43.182Z,100255.13
2023-05-10T15:31:10.427Z,100255.88
2023-05-10T15:33:39.544Z,100265.41
2023-05-10T15:36:07.110Z,100266.16
2023-05-10T15:38:34.379Z,100260.63
2023-05-10T15:41:01.713Z,100251.50
2023-05-10T15:43:29.191Z,100259.13
2023-05-10T15:45:56.458Z,100246.88
2023-05-10T15:48:23.868Z,100251.94
2023-05-10T15:50:52.503Z,100246.66
2023-05-10T15:53:19.851Z,100251.47
2023-05-10T15:55:47.176Z,100251.34
2023-05-10T15:58:14.504Z,100257.91
2023-05-10T16:00:41.946Z,100257.00
2023-05-10T16:03:09.455Z,100248.44
2023-05-10T16:05:36.819Z,100255.34
2023-05-10T16:08:05.775Z,100251.16
2023-05-10T16:10:33.233Z,100257.72
2023-05-10T16:13:00.678Z,100246.53
2023-05-10T16:15:28.200Z,100252.28
2023-05-10T16:17:55.667Z,100256.59
2023-05-10T16:20:23.016Z,100254.78
2023-05-10T16:22:50.712Z,100251.59
2023-05-10T16:25:19.762Z,100245.69
2023-05-10T16:27:47.432Z,100257.59
2023-05-10T16:30:14.857Z,100256.22
2023-05-10T16:32:42.141Z,100262.38
2023-05-10T16:35:09.898Z,100265.56
2023-05-10T16:37:37.444Z,100257.31
2023-05-10T16:40:06.130Z,100261.19
2023-05-10T16:42:35.011Z,100266.66
2023-05-10T16:45:02.464Z,100277.00
2023-05-10T16:47:29.780Z,100265.06
2023-05-10T16:49:57.086Z,100253.19
2023-05-10T16:52:24.455Z,100266.22
2023-05-10T16:54:51.793Z,100261.47
2023-05-10T16:57:19.063Z,100260.06
2023-05-10T16:59:47.964Z,100263.81
2023-05-10T17:02:15.548Z,100261.94
2023-05-10T17:04:42.992Z,100269.75
2023-05-10T17:07:10.639Z,100267.25
2023-05-10T17:09:38.136Z,100272.28
2023-05-10T17:12:05.833Z,100278.09
2023-05-10T17:14:33.143Z,100271.03
2023-05-10T17:17:02.118Z,100267.94
2023-05-10T17:19:30.254Z,100270.75
2023-05-10T17:21:57.601Z,100273.06
2023-05-10T17:24:25.218Z,100271.66
2023-05-10T17:26:53.752Z,100270.41
2023-05-10T17:29:22.760Z,100271.84
2023-05-10T17:31:52.731Z,100271.13
2023-05-10T17:34:23.535Z,100268.34
2023-05-10T17:36:50.883Z,100269.16
2023-05-10T17:39:18.192Z,100281.34
2023-05-10T17:42:04.058Z,100281.66
2023-05-10T17:44:51.684Z,100280.78
2023-05-10T17:47:39.322Z,100290.47
2023-05-10T17:50:28.325Z,100289.16
2023-05-10T17:53:15.984Z,100284.72
2023-05-10T17:56:03.698Z,100290.09
2023-05-10T17:58:51.316Z,100291.84
2023-05-10T18:01:38.991Z,100281.75
2023-05-10T18:04:26.717Z,100285.28
2023-05-10T18:07:15.696Z,100295.41
2023-05-10T18:10:03.394Z,100299.47
2023-05-10T18:12:50.986Z,100298.63
2023-05-10T18:15:41.768Z,100295.47
2023-05-10T18:18:29.372Z,100296.13
2023-05-10T18:21:17.478Z,100300.34
2023-05-10T18:24:06.712Z,100301.50
2023-05-10T18:26:54.410Z,100305.00
2023-05-10T18:29:42.024Z,100305.38
2023-05-10T18:32:29.667Z,100319.59
2023-05-10T18:35:17.322Z,100318.72
2023-05-10T18:38:04.928Z,100321.59
2023-05-10T18:40:53.902Z,100326.00
2023-05-10T18:43:41.557Z,100321.53
2023-05-10T18:46:29.121Z,100319.97
2023-05-10T18:49:16.785Z,100312.19
2023-05-10T18:52:04.566Z,100323.94
2023-05-10T18:54:52.260Z,100313.31
2023-05-10T18:57:41.295Z,100320.09
2023-05-10T19:00:29.130Z,100325.44
2023-05-10T19:03:16.710Z,100323.56
2023-05-10T19:06:04.360Z,100322.97
2023-05-10T19:08:52.307Z,100327.16
2023-05-10T19:11:41.065Z,100317.22
2023-05-10T19:14:30.035Z,100327.72
2023-05-10T19:17:17.690Z,100326.53
2023-05-10T19:20:06.246Z,100332.91
2023-05-10T19:23:09.015Z,100333.88
2023-05-10T19:25:59.159Z,100330.34
2023-05-10T19:28:46.733Z,100324.25
2023-05-10T19:31:35.933Z,100330.72
2023-05-10T19:34:23.926Z,100326.59
2023-05-10T19:37:11.634Z,100325.53
2023-05-10T19:39:59.283Z,100333.06
2023-05-10T19:42:47.025Z,100341.16
2023-05-10T19:45:35.065Z,100344.03
2023-05-10T19:48:24.143Z,100340.78
2023-05-10T19:51:12.404Z,100347.94
2023-05-10T19:54:00.240Z,100339.59
2023-05-10T19:56:47.850Z,100343.13
2023-05-10T19:59:35.427Z,100353.53
2023-05-10T20:02:23.128Z,100357.28
2023-05-10T20:05:12.208Z,100365.00
2023-05-10T20:07:59.827Z,100376.44
2023-05-10T20:10:47.439Z,100371.41
2023-05-10T20:13:35.030Z,100379.63
2023-05-10T20:16:25.069Z,100386.34
2023-05-10T20:19:14.339Z,100381.31
2023-05-10T20:22:03.376Z,100385.53
2023-05-10T20:24:51.489Z,100386.38
2023-05-10T20:27:39.192Z,100385.53
2023-05-10T20:30:26.923Z,100383.34
2023-05-10T20:33:14.505Z,100375.28
2023-05-10T20:36:02.065Z,100389.72
2023-05-10T20:38:51.185Z,100374.94
2023-05-10T20:41:38.734Z,100381.16
2023-05-10T20:44:26.328Z,100376.59
2023-05-10T20:47:14.900Z,100376.59
2023-05-10T20:50:02.536Z,100375.75
2023-05-10T20:52:50.150Z,100388.03
2023-05-10T20:55:39.073Z,100388.53
2023-05-10T20:58:26.934Z,100382.00
2023-05-10T21:01:14.616Z,100381.47
2023-05-10T21:04:02.661Z,100385.69
2023-05-10T21:06:50.250Z,100386.22
2023-05-10T21:09:38.221Z,100393.09
2023-05-10T21:12:27.265Z,100396.22
2023-05-10T21:15:14.898Z,100390.69
2023-05-10T21:18:02.611Z,100396.72
2023-05-10T21:20:50.300Z,100394.84
2023-05-10T21:23:37.894Z,100392.63
2023-05-10T21:26:25.500Z,100388.22
2023-05-10T21:29:14.856Z,100393.47
2023-05-10T21:32:02.608Z,100390.94
2023-05-10T21:34:50.324Z,100393.13
2023-05-10T21:37:37.945Z,100388.22
2023-05-10T21:40:25.553Z,100380.03
2023-05-10T21:43:13.176Z,100377.00
2023-05-10T21:46:02.191Z,100375.66
2023-05-10T21:48:49.883Z,100369.84
2023-05-10T21:51:37.481Z,100371.84
2023-05-10T21:54:25.154Z,100376.84
2023-05-10T21:57:12.731Z,100371.78
2023-05-10T22:00:00.384Z,100374.13
2023-05-10T22:02:49.529Z,100373.47
2023-05-10T22:05:37.221Z,100364.59
2023-05-10T22:08:24.804Z,100366.13
2023-05-10T22:11:12.540Z,100366.47
2023-05-10T22:14:00.153Z,100360.09
2023-05-10T22:16:47.837Z,100361.91
2023-05-10T22:19:36.781Z,100361.03
2023-05-10T22:22:24.391Z,100361.88
2023-05-10T22:25:12.037Z,100358.69
2023-05-10T22:27:59.605Z,100360.53
2023-05-10T22:30:47.518Z,100365.03
2023-05-10T22:33:35.196Z,100358.97
2023-05-10T22:36:24.109Z,100355.81
2023-05-10T22:39:11.733Z,100359.81
2023-05-10T22:41:59.303Z,100360.34
2023-05-10T22:44:46.970Z,100358.06
2023-05-10T22:47:34.675Z,100357.25
2023-05-10T22:50:22.351Z,100351.78
